createdAt,value
2018-06-02T00:00:03.579Z,1023.67127653
2018-06-02T00:00:16.004Z,1023.67127653
2018-06-02T00:00:28.448Z,1023.67127653
2018-06-02T00:00:40.984Z,1023.67127653
2018-06-02T00:00:53.419Z,1023.67127653
2018-06-02T00:01:05.876Z,1023.60354877
2018-06-02T00:01:18.304Z,1023.60354877
2018-06-02T00:01:30.739Z,1023.60354877
2018-06-02T00:01:43.218Z,1023.60354877
2018-06-02T00:01:55.643Z,1023.60354877
2018-06-02T00:02:08.095Z,1023.73900429
2018-06-02T00:02:20.530Z,1023.73900429
2018-06-02T00:02:32.976Z,1023.73900429
2018-06-02T00:02:45.428Z,1023.73900429
2018-06-02T00:02:57.866Z,1023.73900429
2018-06-02T00:03:10.279Z,1023.67127653
2018-06-02T00:03:22.721Z,1023.67127653
2018-06-02T00:03:35.134Z,1023.67127653
2018-06-02T00:03:47.552Z,1023.67127653
2018-06-02T00:04:00.005Z,1023.67127653
2018-06-02T00:04:12.432Z,1023.67127653
2018-06-02T00:04:24.888Z,1023.67127653
2018-06-02T00:04:37.375Z,1023.67127653
2018-06-02T00:04:49.803Z,1023.67127653
2018-06-02T00:05:02.222Z,1023.77286817
2018-06-02T00:05:14.668Z,1023.77286817
2018-06-02T00:05:27.069Z,1023.77286817
2018-06-02T00:05:39.521Z,1023.77286817
2018-06-02T00:05:51.956Z,1023.77286817
2018-06-02T00:06:04.399Z,1023.77286817
2018-06-02T00:06:16.821Z,1023.77286817
2018-06-02T00:06:29.257Z,1023.77286817
2018-06-02T00:06:41.682Z,1023.77286817
2018-06-02T00:06:54.147Z,1023.77286817
2018-06-02T00:07:06.565Z,1023.77286817
2018-06-02T00:07:19.035Z,1023.77286817
2018-06-02T00:07:31.457Z,1023.77286817
2018-06-02T00:07:43.901Z,1023.77286817
2018-06-02T00:07:56.327Z,1023.77286817
2018-06-02T00:08:08.741Z,1023.67127653
2018-06-02T00:08:21.213Z,1023.67127653
2018-06-02T00:08:33.656Z,1023.67127653
2018-06-02T00:08:46.055Z,1023.67127653
2018-06-02T00:08:58.470Z,1023.67127653
2018-06-02T00:09:10.871Z,1023.70514041
2018-06-02T00:09:23.290Z,1023.70514041
2018-06-02T00:09:35.720Z,1023.70514041
2018-06-02T00:09:48.429Z,1023.70514041
2018-06-02T00:10:00.833Z,1023.56968488
2018-06-02T00:10:13.267Z,1023.56968488
2018-06-02T00:10:25.715Z,1023.56968488
2018-06-02T00:10:38.134Z,1023.56968488
2018-06-02T00:10:50.618Z,1023.56968488
2018-06-02T00:11:03.100Z,1023.63741265
2018-06-02T00:11:16.272Z,1023.63741265
2018-06-02T00:11:29.260Z,1023.63741265
2018-06-02T00:11:41.740Z,1023.63741265
2018-06-02T00:11:54.142Z,1023.63741265
2018-06-02T00:12:06.552Z,1023.63741265
2018-06-02T00:12:18.973Z,1023.63741265
2018-06-02T00:12:31.396Z,1023.63741265
2018-06-02T00:12:43.829Z,1023.63741265
2018-06-02T00:12:56.285Z,1023.63741265
2018-06-02T00:13:08.708Z,1023.63741265
2018-06-02T00:13:21.155Z,1023.63741265
2018-06-02T00:13:33.586Z,1023.63741265
2018-06-02T00:13:46.028Z,1023.63741265
2018-06-02T00:13:58.455Z,1023.63741265
2018-06-02T00:14:10.881Z,1023.60354877
2018-06-02T00:14:23.284Z,1023.60354877
2018-06-02T00:14:35.790Z,1023.60354877
2018-06-02T00:14:48.300Z,1023.60354877
2018-06-02T00:15:00.715Z,1023.63741265
2018-06-02T00:15:13.179Z,1023.63741265
2018-06-02T00:15:25.605Z,1023.63741265
2018-06-02T00:15:38.014Z,1023.63741265
2018-06-02T00:15:50.453Z,1023.63741265
2018-06-02T00:16:02.872Z,1023.70514041
2018-06-02T00:16:15.293Z,1023.70514041
2018-06-02T00:16:27.704Z,1023.70514041
2018-06-02T00:16:40.136Z,1023.70514041
2018-06-02T00:16:52.594Z,1023.70514041
2018-06-02T00:17:05.007Z,1023.70514041
2018-06-02T00:17:17.446Z,1023.70514041
2018-06-02T00:17:29.858Z,1023.70514041
2018-06-02T00:17:42.299Z,1023.70514041
2018-06-02T00:17:54.708Z,1023.70514041
2018-06-02T00:18:07.141Z,1023.56968488
2018-06-02T00:18:19.634Z,1023.56968488
2018-06-02T00:18:32.072Z,1023.56968488
2018-06-02T00:18:44.500Z,1023.56968488
2018-06-02T00:18:56.938Z,1023.56968488
2018-06-02T00:19:09.369Z,1023.70514041
2018-06-02T00:19:21.777Z,1023.70514041
2018-06-02T00:19:34.222Z,1023.70514041
2018-06-02T00:19:46.646Z,1023.70514041
2018-06-02T00:19:59.063Z,1023.70514041
2018-06-02T00:20:11.478Z,1023.70514041
2018-06-02T00:20:23.888Z,1023.70514041
2018-06-02T00:20:36.302Z,1023.70514041
2018-06-02T00:20:48.741Z,1023.70514041
2018-06-02T00:21:01.144Z,1023.73900429
2018-06-02T00:21:13.563Z,1023.73900429
2018-06-02T00:21:25.971Z,1023.73900429
2018-06-02T00:21:38.402Z,1023.73900429
2018-06-02T00:21:50.817Z,1023.73900429
2018-06-02T00:22:03.332Z,1023.73900429
2018-06-02T00:22:15.742Z,1023.73900429
2018-06-02T00:22:28.157Z,1023.73900429
2018-06-02T00:22:40.585Z,1023.73900429
2018-06-02T00:22:53.008Z,1023.73900429
2018-06-02T00:23:05.437Z,1023.67127653
2018-06-02T00:23:17.910Z,1023.67127653
2018-06-02T00:23:30.327Z,1023.67127653
2018-06-02T00:23:42.747Z,1023.67127653
2018-06-02T00:23:55.218Z,1023.67127653
2018-06-02T00:24:07.611Z,1023.67127653
2018-06-02T00:24:20.021Z,1023.67127653
2018-06-02T00:24:32.437Z,1023.67127653
2018-06-02T00:24:44.865Z,1023.67127653
2018-06-02T00:24:57.310Z,1023.67127653
2018-06-02T00:25:09.735Z,1023.77286817
2018-06-02T00:25:22.180Z,1023.77286817
2018-06-02T00:25:34.627Z,1023.77286817
2018-06-02T00:25:47.168Z,1023.77286817
2018-06-02T00:25:59.615Z,1023.70514041
2018-06-02T00:26:12.065Z,1023.70514041
2018-06-02T00:26:24.493Z,1023.70514041
2018-06-02T00:26:36.937Z,1023.70514041
2018-06-02T00:26:49.367Z,1023.70514041
2018-06-02T00:27:01.793Z,1023.73900429
2018-06-02T00:27:14.217Z,1023.73900429
2018-06-02T00:27:26.648Z,1023.73900429
2018-06-02T00:27:39.058Z,1023.73900429
2018-06-02T00:27:51.468Z,1023.73900429
2018-06-02T00:28:03.917Z,1023.70514041
2018-06-02T00:28:16.368Z,1023.70514041
2018-06-02T00:28:28.897Z,1023.70514041
2018-06-02T00:28:41.309Z,1023.70514041
2018-06-02T00:28:53.713Z,1023.70514041
2018-06-02T00:29:06.120Z,1023.77286817
2018-06-02T00:29:18.526Z,1023.77286817
2018-06-02T00:29:30.949Z,1023.77286817
2018-06-02T00:29:43.397Z,1023.77286817
2018-06-02T00:29:55.843Z,1023.77286817
2018-06-02T00:30:08.261Z,1023.77286817
2018-06-02T00:30:20.660Z,1023.77286817
2018-06-02T00:30:33.093Z,1023.77286817
2018-06-02T00:30:45.496Z,1023.77286817
2018-06-02T00:30:57.920Z,1023.77286817
2018-06-02T00:31:10.331Z,1023.70514041
2018-06-02T00:31:22.752Z,1023.70514041
2018-06-02T00:31:35.167Z,1023.70514041
2018-06-02T00:31:47.584Z,1023.70514041
2018-06-02T00:31:59.993Z,1023.67127653
2018-06-02T00:32:12.422Z,1023.67127653
2018-06-02T00:32:24.849Z,1023.67127653
2018-06-02T00:32:37.265Z,1023.67127653
2018-06-02T00:32:49.672Z,1023.67127653
2018-06-02T00:33:02.134Z,1023.67127653
2018-06-02T00:33:14.554Z,1023.67127653
2018-06-02T00:33:26.974Z,1023.67127653
2018-06-02T00:33:39.374Z,1023.67127653
2018-06-02T00:33:52.165Z,1023.67127653
2018-06-02T00:34:04.593Z,1023.70514041
2018-06-02T00:34:17.038Z,1023.70514041
2018-06-02T00:34:29.475Z,1023.70514041
2018-06-02T00:34:41.921Z,1023.70514041
2018-06-02T00:34:54.372Z,1023.70514041
2018-06-02T00:35:06.944Z,1023.67127653
2018-06-02T00:35:19.390Z,1023.67127653
2018-06-02T00:35:31.869Z,1023.67127653
2018-06-02T00:35:44.312Z,1023.67127653
2018-06-02T00:35:56.740Z,1023.67127653
2018-06-02T00:36:09.158Z,1023.67127653
2018-06-02T00:36:21.585Z,1023.67127653
2018-06-02T00:36:34.003Z,1023.67127653
2018-06-02T00:36:46.421Z,1023.67127653
2018-06-02T00:36:58.832Z,1023.60354877
2018-06-02T00:37:11.260Z,1023.60354877
2018-06-02T00:37:23.680Z,1023.60354877
2018-06-02T00:37:36.094Z,1023.60354877
2018-06-02T00:37:48.507Z,1023.60354877
2018-06-02T00:38:00.956Z,1023.60354877
2018-06-02T00:38:13.414Z,1023.60354877
2018-06-02T00:38:25.836Z,1023.60354877
2018-06-02T00:38:38.251Z,1023.60354877
2018-06-02T00:38:50.666Z,1023.60354877
2018-06-02T00:39:03.104Z,1023.67127653
2018-06-02T00:39:15.522Z,1023.67127653
2018-06-02T00:39:27.941Z,1023.67127653
2018-06-02T00:39:40.397Z,1023.67127653
2018-06-02T00:39:52.849Z,1023.67127653
2018-06-02T00:40:05.303Z,1023.67127653
2018-06-02T00:40:17.722Z,1023.67127653
2018-06-02T00:40:30.153Z,1023.67127653
2018-06-02T00:40:42.568Z,1023.67127653
2018-06-02T00:40:54.992Z,1023.67127653
2018-06-02T00:41:07.917Z,1023.60354877
2018-06-02T00:41:20.364Z,1023.60354877
2018-06-02T00:41:32.781Z,1023.60354877
2018-06-02T00:41:45.196Z,1023.60354877
2018-06-02T00:41:57.604Z,1023.60354877
2018-06-02T00:42:10.063Z,1023.60354877
2018-06-02T00:42:22.502Z,1023.60354877
2018-06-02T00:42:35.084Z,1023.60354877
2018-06-02T00:42:47.658Z,1023.60354877
2018-06-02T00:43:00.094Z,1023.60354877
2018-06-02T00:43:12.533Z,1023.60354877
2018-06-02T00:43:24.960Z,1023.60354877
2018-06-02T00:43:37.400Z,1023.60354877
2018-06-02T00:43:49.806Z,1023.60354877
2018-06-02T00:44:02.261Z,1023.70514041
2018-06-02T00:44:14.680Z,1023.70514041
2018-06-02T00:44:27.080Z,1023.70514041
2018-06-02T00:44:39.505Z,1023.70514041
2018-06-02T00:44:51.920Z,1023.70514041
2018-06-02T00:45:04.334Z,1023.63741265
2018-06-02T00:45:16.734Z,1023.63741265
2018-06-02T00:45:29.150Z,1023.63741265
2018-06-02T00:45:41.568Z,1023.63741265
2018-06-02T00:45:53.968Z,1023.63741265
2018-06-02T00:46:06.397Z,1023.63741265
2018-06-02T00:46:18.815Z,1023.63741265
2018-06-02T00:46:31.244Z,1023.63741265
2018-06-02T00:46:43.648Z,1023.63741265
2018-06-02T00:46:56.062Z,1023.63741265
2018-06-02T00:47:08.480Z,1023.60354877
2018-06-02T00:47:20.911Z,1023.60354877
2018-06-02T00:47:33.315Z,1023.60354877
2018-06-02T00:47:45.771Z,1023.60354877
2018-06-02T00:47:58.190Z,1023.60354877
2018-06-02T00:48:10.593Z,1023.70514041
2018-06-02T00:48:23.023Z,1023.70514041
2018-06-02T00:48:35.582Z,1023.70514041
2018-06-02T00:48:48.004Z,1023.70514041
2018-06-02T00:49:00.410Z,1023.60354877
2018-06-02T00:49:12.889Z,1023.60354877
2018-06-02T00:49:25.320Z,1023.60354877
2018-06-02T00:49:37.820Z,1023.60354877
2018-06-02T00:49:50.326Z,1023.60354877
2018-06-02T00:50:02.767Z,1023.60354877
2018-06-02T00:50:15.442Z,1023.60354877
2018-06-02T00:50:27.850Z,1023.60354877
2018-06-02T00:50:40.274Z,1023.60354877
2018-06-02T00:50:52.698Z,1023.60354877
2018-06-02T00:51:05.138Z,1023.63741265
2018-06-02T00:51:17.540Z,1023.63741265
2018-06-02T00:51:29.962Z,1023.63741265
2018-06-02T00:51:42.390Z,1023.63741265
2018-06-02T00:51:54.811Z,1023.63741265
2018-06-02T00:52:07.239Z,1023.70514041
2018-06-02T00:52:19.660Z,1023.70514041
2018-06-02T00:52:32.071Z,1023.70514041
2018-06-02T00:52:44.607Z,1023.70514041
2018-06-02T00:52:57.024Z,1023.70514041
2018-06-02T00:53:09.468Z,1023.67127653
2018-06-02T00:53:21.892Z,1023.67127653
2018-06-02T00:53:34.311Z,1023.67127653
2018-06-02T00:53:46.752Z,1023.67127653
2018-06-02T00:53:59.174Z,1023.67127653
2018-06-02T00:54:11.605Z,1023.67127653
2018-06-02T00:54:24.033Z,1023.67127653
2018-06-02T00:54:36.442Z,1023.67127653
2018-06-02T00:54:48.858Z,1023.67127653
2018-06-02T00:55:01.272Z,1023.63741265
2018-06-02T00:55:13.689Z,1023.63741265
2018-06-02T00:55:26.095Z,1023.63741265
2018-06-02T00:55:38.507Z,1023.63741265
2018-06-02T00:55:51.024Z,1023.63741265
2018-06-02T00:56:03.428Z,1023.67127653
2018-06-02T00:56:15.880Z,1023.67127653
2018-06-02T00:56:28.363Z,1023.67127653
2018-06-02T00:56:40.848Z,1023.67127653
2018-06-02T00:56:53.260Z,1023.67127653
2018-06-02T00:57:05.671Z,1023.63741265
2018-06-02T00:57:18.119Z,1023.63741265
2018-06-02T00:57:30.555Z,1023.63741265
2018-06-02T00:57:42.985Z,1023.63741265
2018-06-02T00:57:55.389Z,1023.63741265
2018-06-02T00:58:07.801Z,1023.63741265
2018-06-02T00:58:20.405Z,1023.63741265
2018-06-02T00:58:32.816Z,1023.63741265
2018-06-02T00:58:45.261Z,1023.63741265
2018-06-02T00:58:57.679Z,1023.63741265
2018-06-02T00:59:10.095Z,1023.70514041
2018-06-02T00:59:22.501Z,1023.70514041
2018-06-02T00:59:34.920Z,1023.70514041
2018-06-02T00:59:47.325Z,1023.70514041
2018-06-02T00:59:59.784Z,1023.70514041
2018-06-02T01:00:12.225Z,1023.70514041
2018-06-02T01:00:24.636Z,1023.70514041
2018-06-02T01:00:37.168Z,1023.70514041
2018-06-02T01:00:49.636Z,1023.70514041
2018-06-02T01:01:02.092Z,1023.67127653
2018-06-02T01:01:14.572Z,1023.67127653
2018-06-02T01:01:27.007Z,1023.67127653
2018-06-02T01:01:39.436Z,1023.67127653
2018-06-02T01:01:51.884Z,1023.67127653
2018-06-02T01:02:04.317Z,1023.70514041
2018-06-02T01:02:16.751Z,1023.70514041
2018-06-02T01:02:29.176Z,1023.70514041
2018-06-02T01:02:41.593Z,1023.70514041
2018-06-02T01:02:54.024Z,1023.70514041
2018-06-02T01:03:06.516Z,1023.77286817
2018-06-02T01:03:18.944Z,1023.77286817
2018-06-02T01:03:31.425Z,1023.77286817
2018-06-02T01:03:43.894Z,1023.77286817
2018-06-02T01:03:56.331Z,1023.77286817
2018-06-02T01:04:08.759Z,1023.70514041
2018-06-02T01:04:21.170Z,1023.70514041
2018-06-02T01:04:33.587Z,1023.70514041
2018-06-02T01:04:46.007Z,1023.70514041
2018-06-02T01:04:58.444Z,1023.70514041
2018-06-02T01:05:10.879Z,1023.80673205
2018-06-02T01:05:23.290Z,1023.80673205
2018-06-02T01:05:35.976Z,1023.80673205
2018-06-02T01:05:48.384Z,1023.80673205
2018-06-02T01:06:00.818Z,1023.67127653
2018-06-02T01:06:13.268Z,1023.67127653
2018-06-02T01:06:25.733Z,1023.67127653
2018-06-02T01:06:38.152Z,1023.67127653
2018-06-02T01:06:50.569Z,1023.67127653
2018-06-02T01:07:03.011Z,1023.70514041
2018-06-02T01:07:15.434Z,1023.70514041
2018-06-02T01:07:27.912Z,1023.70514041
2018-06-02T01:07:40.351Z,1023.70514041
2018-06-02T01:07:52.786Z,1023.70514041
2018-06-02T01:08:05.240Z,1023.77286817
2018-06-02T01:08:17.692Z,1023.77286817
2018-06-02T01:08:30.108Z,1023.77286817
2018-06-02T01:08:42.540Z,1023.77286817
2018-06-02T01:08:54.996Z,1023.77286817
2018-06-02T01:09:07.459Z,1023.77286817
2018-06-02T01:09:19.935Z,1023.77286817
2018-06-02T01:09:32.406Z,1023.77286817
2018-06-02T01:09:44.819Z,1023.77286817
2018-06-02T01:09:57.697Z,1023.77286817
2018-06-02T01:10:10.146Z,1023.84059594
2018-06-02T01:10:22.581Z,1023.84059594
2018-06-02T01:10:35.072Z,1023.84059594
2018-06-02T01:10:47.689Z,1023.84059594
2018-06-02T01:11:00.110Z,1023.77286817
2018-06-02T01:11:12.530Z,1023.77286817
2018-06-02T01:11:24.943Z,1023.77286817
2018-06-02T01:11:37.363Z,1023.77286817
2018-06-02T01:11:49.786Z,1023.77286817
2018-06-02T01:12:02.188Z,1023.67127653
2018-06-02T01:12:14.604Z,1023.67127653
2018-06-02T01:12:27.043Z,1023.67127653
2018-06-02T01:12:39.452Z,1023.67127653
2018-06-02T01:12:51.880Z,1023.67127653
2018-06-02T01:13:04.307Z,1023.77286817
2018-06-02T01:13:16.731Z,1023.77286817
2018-06-02T01:13:29.150Z,1023.77286817
2018-06-02T01:13:41.582Z,1023.77286817
2018-06-02T01:13:54.008Z,1023.77286817
2018-06-02T01:14:06.433Z,1023.70514041
2018-06-02T01:14:18.863Z,1023.70514041
2018-06-02T01:14:31.322Z,1023.70514041
2018-06-02T01:14:43.751Z,1023.70514041
2018-06-02T01:14:56.184Z,1023.70514041
2018-06-02T01:15:08.599Z,1023.73900429
2018-06-02T01:15:21.049Z,1023.73900429
2018-06-02T01:15:33.457Z,1023.73900429
2018-06-02T01:15:45.942Z,1023.73900429
2018-06-02T01:15:58.344Z,1023.73900429
2018-06-02T01:16:10.766Z,1023.70514041
2018-06-02T01:16:23.192Z,1023.70514041
2018-06-02T01:16:35.597Z,1023.70514041
2018-06-02T01:16:48.006Z,1023.70514041
2018-06-02T01:17:00.427Z,1023.77286817
2018-06-02T01:17:12.850Z,1023.77286817
2018-06-02T01:17:25.267Z,1023.77286817
2018-06-02T01:17:37.689Z,1023.77286817
2018-06-02T01:17:50.193Z,1023.77286817
2018-06-02T01:18:02.618Z,1023.73900429
2018-06-02T01:18:15.213Z,1023.73900429
2018-06-02T01:18:27.631Z,1023.73900429
2018-06-02T01:18:40.032Z,1023.73900429
2018-06-02T01:18:52.447Z,1023.73900429
2018-06-02T01:19:04.962Z,1023.73900429
2018-06-02T01:19:17.389Z,1023.73900429
2018-06-02T01:19:29.820Z,1023.73900429
2018-06-02T01:19:42.225Z,1023.73900429
2018-06-02T01:19:54.654Z,1023.73900429
2018-06-02T01:20:07.104Z,1023.73900429
2018-06-02T01:20:19.526Z,1023.73900429
2018-06-02T01:20:31.982Z,1023.73900429
2018-06-02T01:20:44.494Z,1023.73900429
2018-06-02T01:20:57.539Z,1023.73900429
2018-06-02T01:21:09.958Z,1023.77286817
2018-06-02T01:21:22.367Z,1023.77286817
2018-06-02T01:21:34.787Z,1023.77286817
2018-06-02T01:21:47.213Z,1023.77286817
2018-06-02T01:21:59.629Z,1023.73900429
2018-06-02T01:22:12.056Z,1023.73900429
2018-06-02T01:22:24.449Z,1023.73900429
2018-06-02T01:22:36.860Z,1023.73900429
2018-06-02T01:22:49.283Z,1023.73900429
2018-06-02T01:23:01.742Z,1023.87445982
2018-06-02T01:23:14.159Z,1023.87445982
2018-06-02T01:23:26.573Z,1023.87445982
2018-06-02T01:23:38.991Z,1023.87445982
2018-06-02T01:23:51.411Z,1023.87445982
2018-06-02T01:24:03.881Z,1023.80673205
2018-06-02T01:24:16.340Z,1023.80673205
2018-06-02T01:24:28.813Z,1023.80673205
2018-06-02T01:24:41.226Z,1023.80673205
2018-06-02T01:24:53.649Z,1023.80673205
2018-06-02T01:25:06.083Z,1023.80673205
2018-06-02T01:25:18.523Z,1023.80673205
2018-06-02T01:25:30.942Z,1023.80673205
2018-06-02T01:25:43.531Z,1023.80673205
2018-06-02T01:25:55.944Z,1023.80673205
2018-06-02T01:26:08.399Z,1023.77286817
2018-06-02T01:26:20.839Z,1023.77286817
2018-06-02T01:26:33.255Z,1023.77286817
2018-06-02T01:26:45.657Z,1023.77286817
2018-06-02T01:26:58.127Z,1023.77286817
2018-06-02T01:27:10.587Z,1023.77286817
2018-06-02T01:27:23.015Z,1023.77286817
2018-06-02T01:27:35.418Z,1023.77286817
2018-06-02T01:27:47.847Z,1023.77286817
2018-06-02T01:28:00.264Z,1023.67127653
2018-06-02T01:28:12.671Z,1023.67127653
2018-06-02T01:28:25.111Z,1023.67127653
2018-06-02T01:28:37.541Z,1023.67127653
2018-06-02T01:28:50.050Z,1023.67127653
2018-06-02T01:29:02.477Z,1023.80673205
2018-06-02T01:29:14.907Z,1023.80673205
2018-06-02T01:29:27.333Z,1023.80673205
2018-06-02T01:29:39.774Z,1023.80673205
2018-06-02T01:29:52.222Z,1023.80673205
2018-06-02T01:30:04.640Z,1023.70514041
2018-06-02T01:30:17.058Z,1023.70514041
2018-06-02T01:30:29.486Z,1023.70514041
2018-06-02T01:30:41.941Z,1023.70514041
2018-06-02T01:30:54.352Z,1023.70514041
2018-06-02T01:31:06.794Z,1023.77286817
2018-06-02T01:31:19.237Z,1023.77286817
2018-06-02T01:31:31.689Z,1023.77286817
2018-06-02T01:31:44.134Z,1023.77286817
2018-06-02T01:31:56.592Z,1023.77286817
2018-06-02T01:32:09.057Z,1023.67127653
2018-06-02T01:32:21.505Z,1023.67127653
2018-06-02T01:32:33.961Z,1023.67127653
2018-06-02T01:32:46.528Z,1023.67127653
2018-06-02T01:32:58.984Z,1023.70514041
2018-06-02T01:33:11.417Z,1023.70514041
2018-06-02T01:33:23.826Z,1023.70514041
2018-06-02T01:33:36.242Z,1023.70514041
2018-06-02T01:33:48.668Z,1023.70514041
2018-06-02T01:34:01.092Z,1023.77286817
2018-06-02T01:34:13.542Z,1023.77286817
2018-06-02T01:34:26.143Z,1023.77286817
2018-06-02T01:34:38.528Z,1023.77286817
2018-06-02T01:34:50.949Z,1023.77286817
2018-06-02T01:35:03.571Z,1023.73900429
2018-06-02T01:35:16.043Z,1023.73900429
2018-06-02T01:35:28.515Z,1023.73900429
2018-06-02T01:35:40.937Z,1023.73900429
2018-06-02T01:35:53.397Z,1023.73900429
2018-06-02T01:36:05.845Z,1023.73900429
2018-06-02T01:36:18.271Z,1023.73900429
2018-06-02T01:36:30.706Z,1023.73900429
2018-06-02T01:36:43.126Z,1023.73900429
2018-06-02T01:36:55.547Z,1023.73900429
2018-06-02T01:37:07.969Z,1023.67127653
2018-06-02T01:37:20.503Z,1023.67127653
2018-06-02T01:37:32.928Z,1023.67127653
2018-06-02T01:37:45.347Z,1023.67127653
2018-06-02T01:37:57.780Z,1023.67127653
2018-06-02T01:38:10.207Z,1023.77286817
2018-06-02T01:38:22.616Z,1023.77286817
2018-06-02T01:38:35.049Z,1023.77286817
2018-06-02T01:38:47.466Z,1023.77286817
2018-06-02T01:38:59.872Z,1023.80673205
2018-06-02T01:39:12.296Z,1023.80673205
2018-06-02T01:39:24.764Z,1023.80673205
2018-06-02T01:39:37.181Z,1023.80673205
2018-06-02T01:39:49.663Z,1023.80673205
2018-06-02T01:40:02.119Z,1023.77286817
2018-06-02T01:40:14.520Z,1023.77286817
2018-06-02T01:40:26.941Z,1023.77286817
2018-06-02T01:40:39.393Z,1023.77286817
2018-06-02T01:40:51.798Z,1023.77286817
2018-06-02T01:41:04.246Z,1023.80673205
2018-06-02T01:41:16.917Z,1023.80673205
2018-06-02T01:41:29.339Z,1023.80673205
2018-06-02T01:41:41.741Z,1023.80673205
2018-06-02T01:41:54.163Z,1023.80673205
2018-06-02T01:42:06.583Z,1023.80673205
2018-06-02T01:42:19.011Z,1023.80673205
2018-06-02T01:42:31.434Z,1023.80673205
2018-06-02T01:42:44.019Z,1023.80673205
2018-06-02T01:42:56.459Z,1023.80673205
2018-06-02T01:43:08.911Z,1023.73900429
2018-06-02T01:43:21.375Z,1023.73900429
2018-06-02T01:43:33.776Z,1023.73900429
2018-06-02T01:43:46.189Z,1023.73900429
2018-06-02T01:43:58.611Z,1023.73900429
2018-06-02T01:44:11.012Z,1023.77286817
2018-06-02T01:44:23.429Z,1023.77286817
2018-06-02T01:44:35.855Z,1023.77286817
2018-06-02T01:44:48.260Z,1023.77286817
2018-06-02T01:45:00.722Z,1023.77286817
2018-06-02T01:45:13.148Z,1023.77286817
2018-06-02T01:45:25.582Z,1023.77286817
2018-06-02T01:45:37.999Z,1023.77286817
2018-06-02T01:45:50.439Z,1023.77286817
2018-06-02T01:46:02.882Z,1023.77286817
2018-06-02T01:46:15.324Z,1023.77286817
2018-06-02T01:46:27.767Z,1023.77286817
2018-06-02T01:46:40.182Z,1023.77286817
2018-06-02T01:46:52.625Z,1023.77286817
2018-06-02T01:47:05.054Z,1023.87445982
2018-06-02T01:47:17.470Z,1023.87445982
2018-06-02T01:47:29.936Z,1023.87445982
2018-06-02T01:47:42.372Z,1023.87445982
2018-06-02T01:47:54.777Z,1023.87445982
2018-06-02T01:48:07.212Z,1023.80673205
2018-06-02T01:48:19.643Z,1023.80673205
2018-06-02T01:48:32.241Z,1023.80673205
2018-06-02T01:48:44.651Z,1023.80673205
2018-06-02T01:48:57.080Z,1023.80673205
2018-06-02T01:49:09.504Z,1023.77286817
2018-06-02T01:49:21.919Z,1023.77286817
2018-06-02T01:49:34.328Z,1023.77286817
2018-06-02T01:49:46.746Z,1023.77286817
2018-06-02T01:49:59.180Z,1023.73900429
2018-06-02T01:50:11.603Z,1023.73900429
2018-06-02T01:50:24.024Z,1023.73900429
2018-06-02T01:50:36.442Z,1023.73900429
2018-06-02T01:50:49.064Z,1023.73900429
2018-06-02T01:51:01.480Z,1023.73900429
2018-06-02T01:51:13.927Z,1023.73900429
2018-06-02T01:51:26.352Z,1023.73900429
2018-06-02T01:51:38.759Z,1023.73900429
2018-06-02T01:51:51.198Z,1023.73900429
2018-06-02T01:52:03.628Z,1023.70514041
2018-06-02T01:52:16.050Z,1023.70514041
2018-06-02T01:52:28.456Z,1023.70514041
2018-06-02T01:52:41.057Z,1023.70514041
2018-06-02T01:52:53.478Z,1023.70514041
2018-06-02T01:53:05.911Z,1023.73900429
2018-06-02T01:53:18.355Z,1023.73900429
2018-06-02T01:53:30.782Z,1023.73900429
2018-06-02T01:53:43.196Z,1023.73900429
2018-06-02T01:53:55.640Z,1023.73900429
2018-06-02T01:54:08.091Z,1023.73900429
2018-06-02T01:54:20.530Z,1023.73900429
2018-06-02T01:54:32.979Z,1023.73900429
2018-06-02T01:54:45.379Z,1023.73900429
2018-06-02T01:54:57.798Z,1023.73900429
2018-06-02T01:55:10.209Z,1023.70514041
2018-06-02T01:55:22.634Z,1023.70514041
2018-06-02T01:55:35.089Z,1023.70514041
2018-06-02T01:55:47.499Z,1023.70514041
2018-06-02T01:55:59.928Z,1023.67127653
2018-06-02T01:56:12.343Z,1023.67127653
2018-06-02T01:56:24.785Z,1023.67127653
2018-06-02T01:56:37.247Z,1023.67127653
2018-06-02T01:56:49.663Z,1023.67127653
2018-06-02T01:57:02.098Z,1023.70514041
2018-06-02T01:57:14.502Z,1023.70514041
2018-06-02T01:57:26.908Z,1023.70514041
2018-06-02T01:57:39.472Z,1023.70514041
2018-06-02T01:57:51.885Z,1023.70514041
2018-06-02T01:58:04.348Z,1023.77286817
2018-06-02T01:58:16.764Z,1023.77286817
2018-06-02T01:58:29.291Z,1023.77286817
2018-06-02T01:58:41.710Z,1023.77286817
2018-06-02T01:58:54.137Z,1023.77286817
2018-06-02T01:59:06.573Z,1023.70514041
2018-06-02T01:59:19.067Z,1023.70514041
2018-06-02T01:59:31.481Z,1023.70514041
2018-06-02T01:59:43.994Z,1023.70514041
2018-06-02T01:59:56.413Z,1023.70514041
2018-06-02T02:00:08.884Z,1023.73900429
2018-06-02T02:00:21.331Z,1023.73900429
2018-06-02T02:00:33.816Z,1023.73900429
2018-06-02T02:00:46.269Z,1023.73900429
2018-06-02T02:00:58.721Z,1023.73900429
2018-06-02T02:01:11.163Z,1023.73900429
2018-06-02T02:01:23.613Z,1023.73900429
2018-06-02T02:01:36.046Z,1023.73900429
2018-06-02T02:01:48.497Z,1023.73900429
2018-06-02T02:02:00.936Z,1023.73900429
2018-06-02T02:02:13.369Z,1023.73900429
2018-06-02T02:02:25.808Z,1023.73900429
2018-06-02T02:02:38.272Z,1023.73900429
2018-06-02T02:02:50.699Z,1023.73900429
2018-06-02T02:03:03.140Z,1023.80673205
2018-06-02T02:03:15.596Z,1023.80673205
2018-06-02T02:03:28.045Z,1023.80673205
2018-06-02T02:03:40.490Z,1023.80673205
2018-06-02T02:03:52.923Z,1023.80673205
2018-06-02T02:04:05.348Z,1023.84059594
2018-06-02T02:04:17.785Z,1023.84059594
2018-06-02T02:04:30.229Z,1023.84059594
2018-06-02T02:04:42.672Z,1023.84059594
2018-06-02T02:04:55.145Z,1023.84059594
2018-06-02T02:05:07.590Z,1023.87445982
2018-06-02T02:05:20.047Z,1023.87445982
2018-06-02T02:05:32.509Z,1023.87445982
2018-06-02T02:05:44.974Z,1023.87445982
2018-06-02T02:05:57.393Z,1023.87445982
2018-06-02T02:06:09.832Z,1023.84059594
2018-06-02T02:06:22.265Z,1023.84059594
2018-06-02T02:06:34.708Z,1023.84059594
2018-06-02T02:06:47.164Z,1023.84059594
2018-06-02T02:06:59.611Z,1023.77286817
2018-06-02T02:07:12.024Z,1023.77286817